createdAt,value
2022-11-08T00:00:29.595Z,5.33
2022-11-08T00:03:33.084Z,5.39
2022-11-08T00:06:54.682Z,5.25
2022-11-08T00:10:16.319Z,5.23
2022-11-08T00:13:37.753Z,5.25
2022-11-08T00:16:40.638Z,5.24
2022-11-08T00:19:43.805Z,5.21
2022-11-08T00:22:46.741Z,5.27
2022-11-08T00:25:55.913Z,5.38
2022-11-08T00:28:59.044Z,5.36
2022-11-08T00:32:05.601Z,5.24
2022-11-08T00:35:09.228Z,5.18
2022-11-08T00:38:11.783Z,5.24
2022-11-08T00:41:15.010Z,5.10
2022-11-08T00:44:17.626Z,5.08
2022-11-08T00:47:20.512Z,5.09
2022-11-08T00:50:23.039Z,5.01
2022-11-08T00:53:25.815Z,5.08
2022-11-08T00:56:28.322Z,4.97
2022-11-08T00:59:31.174Z,4.91
2022-11-08T01:02:33.781Z,4.85
2022-11-08T01:05:38.298Z,4.85
2022-11-08T01:08:41.784Z,4.86
2022-11-08T01:11:46.694Z,5.02
2022-11-08T01:14:49.273Z,4.84
2022-11-08T01:17:52.623Z,4.79
2022-11-08T01:20:55.281Z,4.92
2022-11-08T01:23:58.202Z,4.67
2022-11-08T01:27:00.676Z,4.60
2022-11-08T01:30:04.295Z,4.53
2022-11-08T01:33:07.366Z,4.44
2022-11-08T01:36:13.862Z,4.61
2022-11-08T01:39:16.469Z,4.60
2022-11-08T01:42:30.353Z,4.80
2022-11-08T01:46:19.285Z,4.67
2022-11-08T01:49:28.414Z,4.52
2022-11-08T01:52:37.555Z,5.32
2022-11-08T01:55:40.970Z,4.73
2022-11-08T01:58:46.918Z,4.58
2022-11-08T02:01:50.159Z,4.63
2022-11-08T02:04:55.773Z,4.58
2022-11-08T02:08:04.292Z,4.53
2022-11-08T02:11:09.763Z,4.47
2022-11-08T02:14:12.571Z,4.55
2022-11-08T02:17:15.456Z,4.47
2022-11-08T02:20:17.935Z,4.52
2022-11-08T02:23:26.896Z,4.58
2022-11-08T02:26:32.384Z,4.53
2022-11-08T02:29:36.095Z,4.56
2022-11-08T02:32:40.335Z,4.72
2022-11-08T02:35:46.474Z,4.60
2022-11-08T02:38:54.689Z,4.68
2022-11-08T02:41:59.021Z,4.76
2022-11-08T02:45:01.942Z,4.62
2022-11-08T02:48:05.654Z,4.80
2022-11-08T02:51:08.357Z,4.90
2022-11-08T02:54:14.287Z,4.72
2022-11-08T02:57:19.233Z,4.82
2022-11-08T03:00:22.643Z,4.87
2022-11-08T03:03:25.244Z,4.79
2022-11-08T03:06:28.165Z,4.74
2022-11-08T03:09:31.101Z,4.76
2022-11-08T03:12:33.980Z,4.69
2022-11-08T03:15:36.493Z,4.92
2022-11-08T03:18:40.428Z,4.87
2022-11-08T03:21:42.999Z,4.88
2022-11-08T03:24:45.853Z,4.82
2022-11-08T03:27:51.311Z,4.85
2022-11-08T03:30:54.566Z,4.80
2022-11-08T03:33:57.516Z,4.78
2022-11-08T03:37:00.352Z,4.92
2022-11-08T03:40:04.119Z,4.90
2022-11-08T03:43:07.048Z,4.88
2022-11-08T03:46:09.894Z,4.93
2022-11-08T03:49:15.219Z,5.03
2022-11-08T03:52:18.014Z,4.95
2022-11-08T03:55:24.455Z,4.95
2022-11-08T03:58:27.236Z,4.91
2022-11-08T04:01:30.224Z,5.03
2022-11-08T04:04:33.154Z,5.10
2022-11-08T04:07:36.523Z,5.08
2022-11-08T04:10:39.525Z,4.95
2022-11-08T04:14:00.883Z,4.97
2022-11-08T04:17:03.773Z,4.84
2022-11-08T04:20:27.235Z,5.00
2022-11-08T04:23:31.305Z,4.99
2022-11-08T04:26:33.759Z,4.95
2022-11-08T04:29:36.687Z,4.98
2022-11-08T04:32:39.225Z,5.11
2022-11-08T04:35:42.464Z,4.91
2022-11-08T04:38:51.570Z,4.98
2022-11-08T04:41:59.163Z,4.73
2022-11-08T04:45:04.652Z,4.74
2022-11-08T04:48:07.834Z,4.72
2022-11-08T04:51:13.242Z,4.67
2022-11-08T04:54:16.340Z,4.71
2022-11-08T04:57:18.913Z,4.67
2022-11-08T05:00:21.859Z,4.68
2022-11-08T05:03:24.385Z,4.63
2022-11-08T05:06:30.577Z,4.66
2022-11-08T05:09:32.997Z,4.66
2022-11-08T05:12:35.918Z,4.66
2022-11-08T05:15:38.450Z,4.75
2022-11-08T05:18:42.236Z,4.58
2022-11-08T05:22:03.630Z,4.74
2022-11-08T05:25:06.903Z,4.63
2022-11-08T05:28:09.627Z,4.61
2022-11-08T05:31:12.988Z,4.74
2022-11-08T05:34:15.566Z,4.66
2022-11-08T05:37:18.526Z,4.74
2022-11-08T05:40:21.066Z,4.78
2022-11-08T05:43:24.266Z,4.84
2022-11-08T05:46:26.853Z,4.68
2022-11-08T05:49:29.747Z,4.78
2022-11-08T05:52:32.609Z,4.55
2022-11-08T05:55:35.604Z,4.48
2022-11-08T05:58:38.096Z,4.70
2022-11-08T06:01:41.027Z,4.74
2022-11-08T06:04:44.145Z,4.68
2022-11-08T06:07:46.790Z,4.73
2022-11-08T06:10:49.707Z,4.84
2022-11-08T06:13:53.728Z,4.66
2022-11-08T06:16:56.646Z,4.72
2022-11-08T06:19:59.260Z,4.72
2022-11-08T06:23:02.541Z,4.90
2022-11-08T06:26:05.824Z,4.94
2022-11-08T06:29:08.731Z,5.06
2022-11-08T06:32:11.479Z,4.91
2022-11-08T06:35:14.322Z,5.00
2022-11-08T06:38:17.393Z,5.24
2022-11-08T06:41:20.663Z,5.02
2022-11-08T06:44:23.716Z,5.21
2022-11-08T06:47:26.591Z,5.21
2022-11-08T06:50:31.615Z,5.40
2022-11-08T06:53:34.577Z,5.50
2022-11-08T06:56:37.342Z,5.51
2022-11-08T06:59:40.422Z,5.79
2022-11-08T07:02:46.571Z,5.72
2022-11-08T07:05:49.538Z,5.72
2022-11-08T07:08:52.349Z,6.21
2022-11-08T07:11:56.235Z,6.03
2022-11-08T07:14:58.812Z,5.98
2022-11-08T07:18:08.944Z,6.13
2022-11-08T07:21:12.069Z,5.92
2022-11-08T07:24:14.965Z,6.11
2022-11-08T07:27:17.518Z,6.11
2022-11-08T07:30:20.500Z,6.21
2022-11-08T07:33:23.534Z,6.11
2022-11-08T07:36:26.619Z,6.17
2022-11-08T07:39:29.143Z,6.19
2022-11-08T07:42:56.779Z,5.87
2022-11-08T07:45:56.631Z,6.27
2022-11-08T07:48:59.568Z,6.44
2022-11-08T07:52:02.431Z,6.37
2022-11-08T07:55:05.847Z,6.52
2022-11-08T07:58:10.874Z,6.57
2022-11-08T08:01:13.873Z,6.80
2022-11-08T08:04:16.948Z,6.94
2022-11-08T08:07:19.551Z,6.97
2022-11-08T08:10:22.342Z,6.84
2022-11-08T08:13:24.965Z,6.77
2022-11-08T08:16:27.945Z,6.85
2022-11-08T08:19:30.556Z,7.26
2022-11-08T08:22:33.506Z,7.18
2022-11-08T08:25:36.200Z,7.20
2022-11-08T08:28:39.988Z,7.23
2022-11-08T08:31:42.522Z,7.11
2022-11-08T08:34:45.482Z,7.38
2022-11-08T08:37:48.068Z,7.21
2022-11-08T08:40:51.705Z,7.21
2022-11-08T08:43:55.222Z,7.17
2022-11-08T08:46:58.914Z,7.43
2022-11-08T08:50:01.830Z,7.97
2022-11-08T08:53:06.275Z,7.72
2022-11-08T08:56:09.185Z,7.43
2022-11-08T09:02:38.432Z,7.63
2022-11-08T09:05:46.801Z,7.47
2022-11-08T09:08:49.788Z,7.60
2022-11-08T09:11:53.243Z,7.62
2022-11-08T09:14:56.472Z,7.52
2022-11-08T09:18:00.961Z,7.73
2022-11-08T09:21:04.442Z,8.05
2022-11-08T09:24:07.763Z,7.99
2022-11-08T09:27:10.377Z,7.64
2022-11-08T09:30:13.730Z,7.64
2022-11-08T09:33:16.638Z,7.90
2022-11-08T09:36:19.877Z,7.90
2022-11-08T09:39:22.330Z,7.84
2022-11-08T09:42:28.130Z,8.23
2022-11-08T09:45:46.420Z,8.40
2022-11-08T09:48:51.152Z,8.88
2022-11-08T09:51:54.255Z,8.67
2022-11-08T09:55:23.516Z,8.67
2022-11-08T09:58:38.035Z,8.80
2022-11-08T10:01:41.214Z,8.99
2022-11-08T10:05:00.267Z,9.33
2022-11-08T10:08:05.814Z,9.15
2022-11-08T10:11:33.600Z,9.14
2022-11-08T10:15:02.661Z,9.56
2022-11-08T10:18:23.755Z,9.24
2022-11-08T10:21:58.196Z,9.63
2022-11-08T10:25:03.015Z,10.31
2022-11-08T10:28:07.480Z,11.66
2022-11-08T10:31:13.190Z,11.56
2022-11-08T10:34:20.567Z,11.88
2022-11-08T10:37:25.319Z,11.32
2022-11-08T10:40:42.961Z,11.29
2022-11-08T10:43:52.160Z,11.61
2022-11-08T10:46:58.960Z,11.74
2022-11-08T10:50:14.058Z,13.29
2022-11-08T10:53:25.668Z,12.79
2022-11-08T10:56:28.532Z,12.72
2022-11-08T10:59:32.443Z,14.31
2022-11-08T11:02:36.223Z,14.41
2022-11-08T11:05:44.074Z,13.59
2022-11-08T11:08:54.886Z,15.51
2022-11-08T11:12:02.474Z,15.55
2022-11-08T11:15:05.621Z,15.61
2022-11-08T11:18:24.804Z,15.92
2022-11-08T11:21:36.272Z,14.84
2022-11-08T11:24:50.326Z,14.27
2022-11-08T11:27:57.675Z,14.53
2022-11-08T11:31:03.446Z,14.63
2022-11-08T11:34:18.663Z,15.37
2022-11-08T11:37:40.743Z,15.96
2022-11-08T11:40:48.582Z,14.38
2022-11-08T11:44:09.315Z,15.48
2022-11-08T11:47:39.285Z,16.65
2022-11-08T11:50:46.885Z,15.65
2022-11-08T11:53:49.749Z,14.98
2022-11-08T11:57:06.264Z,15.53
2022-11-08T12:00:13.093Z,15.37
2022-11-08T12:03:29.317Z,15.02
2022-11-08T12:07:05.350Z,15.05
2022-11-08T12:10:31.122Z,16.13
2022-11-08T12:13:51.512Z,15.77
2022-11-08T12:17:17.255Z,15.96
2022-11-08T12:20:36.923Z,15.43
2022-11-08T12:24:01.532Z,14.60
2022-11-08T12:27:37.139Z,14.18
2022-11-08T12:30:58.915Z,13.88
2022-11-08T12:34:28.541Z,13.85
2022-11-08T12:37:54.860Z,13.72
2022-11-08T12:41:12.588Z,13.91
2022-11-08T12:44:48.760Z,14.11
2022-11-08T12:48:11.633Z,13.80
2022-11-08T12:51:15.248Z,13.51
2022-11-08T12:54:26.758Z,13.97
2022-11-08T12:57:32.247Z,13.89
2022-11-08T13:00:36.264Z,13.08
2022-11-08T13:03:42.913Z,13.48
2022-11-08T13:06:56.669Z,12.75
2022-11-08T13:10:17.004Z,12.83
2022-11-08T13:13:37.272Z,12.81
2022-11-08T13:16:43.986Z,12.28
2022-11-08T13:19:53.521Z,12.56
2022-11-08T13:22:59.045Z,12.57
2022-11-08T13:26:20.245Z,12.16
2022-11-08T13:29:29.567Z,12.11
2022-11-08T13:32:55.432Z,11.69
2022-11-08T13:36:26.213Z,11.36
2022-11-08T13:39:40.872Z,11.71
2022-11-08T13:42:50.122Z,11.11
2022-11-08T13:45:54.304Z,11.26
2022-11-08T13:48:58.081Z,11.13
2022-11-08T13:52:43.580Z,11.18
2022-11-08T13:56:16.968Z,10.87
2022-11-08T13:59:31.948Z,10.67
2022-11-08T14:02:35.206Z,10.52
2022-11-08T14:05:46.537Z,10.54
2022-11-08T14:09:11.157Z,10.73
2022-11-08T14:12:37.608Z,10.28
2022-11-08T14:16:01.124Z,10.22
2022-11-08T14:19:22.396Z,9.95
2022-11-08T14:22:28.025Z,10.01
2022-11-08T14:25:35.397Z,9.67
2022-11-08T14:28:40.441Z,9.63
2022-11-08T14:31:43.425Z,9.52
2022-11-08T14:34:46.108Z,9.69
2022-11-08T14:37:49.230Z,9.55
2022-11-08T14:40:58.729Z,9.49
2022-11-08T14:44:02.878Z,9.55
2022-11-08T14:47:05.685Z,9.41
2022-11-08T14:50:19.325Z,9.39
2022-11-08T14:53:27.841Z,9.33
2022-11-08T14:56:38.690Z,9.27
2022-11-08T14:59:41.912Z,9.05
2022-11-08T15:02:49.618Z,9.21
2022-11-08T15:06:12.599Z,9.17
2022-11-08T15:09:23.860Z,9.09
2022-11-08T15:12:26.426Z,9.11
2022-11-08T15:15:33.157Z,9.09
2022-11-08T15:18:40.958Z,9.18
2022-11-08T15:21:49.213Z,9.13
2022-11-08T15:25:17.153Z,8.82
2022-11-08T15:28:25.956Z,8.76
2022-11-08T15:31:31.903Z,8.98
2022-11-08T15:34:40.611Z,8.95
2022-11-08T15:37:46.343Z,9.17
2022-11-08T15:40:51.540Z,8.90
2022-11-08T15:44:16.373Z,9.07
2022-11-08T15:47:44.201Z,8.91
2022-11-08T15:50:47.158Z,9.09
2022-11-08T15:53:51.941Z,8.69
2022-11-08T15:56:56.413Z,8.81
2022-11-08T16:00:00.236Z,8.88
2022-11-08T16:03:03.026Z,8.94
2022-11-08T16:06:06.535Z,8.69
2022-11-08T16:09:09.140Z,8.82
2022-11-08T16:12:15.456Z,8.92
2022-11-08T16:15:21.926Z,8.69
2022-11-08T16:18:25.005Z,8.69
2022-11-08T16:21:30.990Z,8.75
2022-11-08T16:24:34.197Z,8.72
2022-11-08T16:27:37.534Z,8.97
2022-11-08T16:30:46.179Z,8.74
2022-11-08T16:33:54.133Z,8.60
2022-11-08T16:36:58.661Z,8.83
2022-11-08T16:40:01.242Z,8.58
2022-11-08T16:43:10.295Z,8.62
2022-11-08T16:46:21.113Z,8.60
2022-11-08T16:49:27.445Z,8.82
2022-11-08T16:52:30.382Z,8.79
2022-11-08T16:55:35.587Z,8.74
2022-11-08T16:58:38.240Z,8.86
2022-11-08T17:01:41.521Z,8.98
2022-11-08T17:04:44.278Z,8.94
2022-11-08T17:07:51.180Z,8.80
2022-11-08T17:10:57.254Z,8.91
2022-11-08T17:14:00.401Z,8.89
2022-11-08T17:17:03.342Z,8.99
2022-11-08T17:20:08.793Z,8.75
2022-11-08T17:23:12.008Z,8.77
2022-11-08T17:26:15.066Z,8.81
2022-11-08T17:29:17.533Z,8.88
2022-11-08T17:32:20.675Z,9.02
2022-11-08T17:35:25.169Z,8.86
2022-11-08T17:38:28.465Z,9.01
2022-11-08T17:41:31.228Z,9.07
2022-11-08T17:44:34.149Z,9.13
2022-11-08T17:47:37.731Z,8.92
2022-11-08T17:50:40.747Z,9.14
2022-11-08T17:53:44.461Z,9.16
2022-11-08T17:56:47.476Z,9.13
2022-11-08T17:59:50.504Z,9.04
2022-11-08T18:02:53.281Z,9.18
2022-11-08T18:05:57.206Z,9.17
2022-11-08T18:09:02.049Z,9.28
2022-11-08T18:12:05.432Z,9.21
2022-11-08T18:15:09.595Z,9.13
2022-11-08T18:18:14.024Z,9.20
2022-11-08T18:21:18.286Z,9.47
2022-11-08T18:24:21.753Z,9.56
2022-11-08T18:27:24.553Z,9.54
2022-11-08T18:30:27.862Z,9.41
2022-11-08T18:33:30.492Z,9.49
2022-11-08T18:36:33.502Z,9.43
2022-11-08T18:39:36.403Z,9.46
2022-11-08T18:42:39.994Z,9.46
2022-11-08T18:45:43.061Z,9.59
2022-11-08T18:48:46.685Z,9.47
2022-11-08T18:51:52.173Z,9.36
2022-11-08T18:54:56.143Z,9.38
2022-11-08T18:57:58.962Z,9.43
2022-11-08T19:01:03.374Z,9.52
2022-11-08T19:04:06.082Z,9.42
2022-11-08T19:07:10.566Z,9.45
2022-11-08T19:10:14.819Z,9.58
2022-11-08T19:13:21.311Z,9.48
2022-11-08T19:16:26.763Z,9.29
2022-11-08T19:19:32.734Z,9.33
2022-11-08T19:22:36.573Z,9.38
2022-11-08T19:25:41.698Z,9.36
2022-11-08T19:28:46.514Z,9.33
2022-11-08T19:31:49.424Z,9.31
2022-11-08T19:34:52.592Z,9.44
2022-11-08T19:37:55.510Z,9.24
2022-11-08T19:41:01.776Z,9.31
2022-11-08T19:44:06.695Z,9.20
2022-11-08T19:47:09.097Z,9.32
2022-11-08T19:50:12.610Z,9.24
2022-11-08T19:53:16.275Z,9.12
2022-11-08T19:56:29.180Z,9.33
2022-11-08T19:59:40.370Z,9.38
2022-11-08T20:02:43.426Z,9.28
2022-11-08T20:05:52.342Z,9.25
2022-11-08T20:08:55.203Z,9.26
2022-11-08T20:11:58.467Z,9.41
2022-11-08T20:15:03.517Z,9.39
2022-11-08T20:18:06.590Z,9.41
2022-11-08T20:21:11.016Z,9.39
2022-11-08T20:24:14.726Z,9.43
2022-11-08T20:27:19.323Z,9.42
2022-11-08T20:30:22.078Z,9.44
2022-11-08T20:33:24.633Z,9.33
2022-11-08T20:36:31.782Z,9.10
2022-11-08T20:39:37.620Z,9.02
2022-11-08T20:42:40.835Z,8.97
2022-11-08T20:45:43.792Z,8.85
2022-11-08T20:48:51.111Z,8.75
2022-11-08T20:51:54.301Z,8.72
2022-11-08T20:54:57.065Z,8.65
2022-11-08T20:57:59.837Z,8.54
2022-11-08T21:01:06.690Z,8.60
2022-11-08T21:04:09.070Z,8.57
2022-11-08T21:10:42.672Z,8.76
2022-11-08T21:13:46.959Z,8.89
2022-11-08T21:17:20.231Z,8.57
2022-11-08T21:20:13.579Z,8.62
2022-11-08T21:23:17.266Z,8.75
2022-11-08T21:26:20.675Z,8.51
2022-11-08T21:29:23.125Z,8.51
2022-11-08T21:32:26.088Z,8.57
2022-11-08T21:35:28.957Z,8.61
2022-11-08T21:38:33.946Z,8.70
2022-11-08T21:41:36.542Z,8.61
2022-11-08T21:44:39.357Z,8.74
2022-11-08T21:47:42.013Z,8.58
2022-11-08T21:50:45.009Z,8.71
2022-11-08T21:53:54.758Z,8.77
2022-11-08T21:56:58.215Z,8.86
2022-11-08T22:00:00.869Z,8.73
2022-11-08T22:03:03.707Z,8.72
2022-11-08T22:06:06.902Z,8.86
2022-11-08T22:09:09.553Z,8.67
2022-11-08T22:12:12.544Z,8.84
2022-11-08T22:15:15.133Z,8.82
2022-11-08T22:18:26.500Z,8.60
2022-11-08T22:21:43.407Z,8.59
2022-11-08T22:24:48.476Z,8.54
2022-11-08T22:27:51.089Z,8.53
2022-11-08T22:30:55.265Z,8.52
2022-11-08T22:33:59.641Z,8.69
2022-11-08T22:37:02.909Z,8.56
2022-11-08T22:40:06.971Z,8.47
2022-11-08T22:43:10.092Z,8.37
2022-11-08T22:46:13.576Z,8.54
2022-11-08T22:49:16.647Z,8.42
2022-11-08T22:52:19.228Z,8.53
2022-11-08T22:55:22.137Z,8.39
2022-11-08T22:58:24.694Z,8.42
2022-11-08T23:01:27.600Z,8.50
2022-11-08T23:04:30.063Z,8.40
2022-11-08T23:07:32.821Z,8.33
2022-11-08T23:10:58.165Z,8.35
2022-11-08T23:14:35.402Z,8.35
2022-11-08T23:17:39.208Z,8.58
2022-11-08T23:21:00.850Z,8.37
2022-11-08T23:24:21.659Z,8.43
2022-11-08T23:27:43.729Z,8.52
2022-11-08T23:31:04.516Z,8.47
2022-11-08T23:34:07.152Z,8.51
2022-11-08T23:37:09.586Z,8.33
2022-11-08T23:40:33.541Z,8.21
2022-11-08T23:43:54.985Z,8.26
2022-11-08T23:46:59.898Z,8.50
2022-11-08T23:50:02.447Z,8.38
2022-11-08T23:53:06.643Z,8.50
2022-11-08T23:56:09.084Z,8.58
2022-11-08T23:59:13.174Z,8.26
